Time;durP1;ratioP1;P1;durP2;ratioP2;P2;SDS_P1;SDS_P2;PMS_P1;PMS_P2;Temp;Humidity;BMP_temperature;BMP_pressure;BME280_temperature;BME280_humidity;BME280_pressure;Samples;Min_cycle;Max_cycle;Signal;HPM_P1;HPM_P2
2023/05/23 00:01:39;;;;;;;8.70;7.85;;;17.20;99.90;;;;;;5051303;28;20250;-77
2023/05/23 00:04:07;;;;;;;7.97;7.10;;;17.20;99.90;;;;;;5051985;28;20626;-79
2023/05/23 00:06:34;;;;;;;7.65;6.90;;;17.30;99.90;;;;;;5051516;28;20258;-79
2023/05/23 00:09:02;;;;;;;8.75;7.00;;;17.30;99.90;;;;;;5051712;28;20272;-85
2023/05/23 00:11:30;;;;;;;11.43;8.13;;;17.30;99.90;;;;;;5051055;28;20244;-79
2023/05/23 00:13:59;;;;;;;10.07;9.07;;;17.20;99.90;;;;;;5050970;28;20203;-78
2023/05/23 00:16:26;;;;;;;8.38;7.68;;;17.20;99.90;;;;;;5051039;28;20233;-74
2023/05/23 00:18:56;;;;;;;6.95;6.35;;;17.10;99.90;;;;;;5050991;28;20694;-73
2023/05/23 00:21:23;;;;;;;6.65;5.95;;;17.10;99.90;;;;;;5051550;28;20238;-78
2023/05/23 00:23:50;;;;;;;6.03;5.53;;;17.10;99.90;;;;;;5040272;28;20576;-79
2023/05/23 00:26:17;;;;;;;6.20;5.60;;;17.10;99.90;;;;;;5047609;28;20724;-74
2023/05/23 00:28:45;;;;;;;5.70;5.15;;;17.10;99.90;;;;;;5050882;28;20308;-77
2023/05/23 00:31:12;;;;;;;8.52;6.28;;;17.20;99.90;;;;;;5050966;28;20662;-76
2023/05/23 00:33:39;;;;;;;6.05;5.55;;;17.10;99.90;;;;;;5050561;28;20249;-74
2023/05/23 00:36:06;;;;;;;6.43;5.80;;;17.10;99.90;;;;;;5051146;28;20207;-75
2023/05/23 00:38:33;;;;;;;6.03;5.53;;;17.10;99.90;;;;;;5050337;28;20256;-75
2023/05/23 00:41:00;;;;;;;6.65;5.55;;;17.10;99.90;;;;;;5050799;28;20249;-77
2023/05/23 00:43:28;;;;;;;6.53;5.93;;;17.00;99.90;;;;;;5050164;28;20625;-77
2023/05/23 00:45:56;;;;;;;7.80;6.57;;;17.00;99.90;;;;;;5050919;28;20740;-78
2023/05/23 00:48:24;;;;;;;6.82;6.18;;;17.00;99.90;;;;;;5050653;28;20289;-73
2023/05/23 00:50:51;;;;;;;6.57;5.63;;;17.10;99.90;;;;;;5051028;28;20296;-77
2023/05/23 00:53:18;;;;;;;6.00;5.40;;;17.00;99.90;;;;;;5050352;28;20218;-75
2023/05/23 00:55:45;;;;;;;5.93;5.43;;;16.90;99.90;;;;;;5050438;28;20246;-73
2023/05/23 00:58:14;;;;;;;7.15;6.35;;;16.90;99.90;;;;;;5050545;28;20246;-77
2023/05/23 01:00:43;;;;;;;6.60;6.10;;;16.90;99.90;;;;;;5050228;28;20709;-80
2023/05/23 01:03:17;;;;;;;7.15;6.45;;;16.90;99.90;;;;;;5050445;28;20221;-81
2023/05/23 01:05:44;;;;;;;7.95;6.55;;;16.90;99.90;;;;;;5049264;28;20617;-77
2023/05/23 01:08:11;;;;;;;6.00;5.18;;;16.90;99.90;;;;;;5050598;28;20215;-79
2023/05/23 01:10:38;;;;;;;5.72;5.07;;;16.80;99.90;;;;;;5050057;28;20265;-80
2023/05/23 01:13:17;;;;;;;7.20;6.25;;;16.70;99.90;;;;;;5050502;28;20302;-72
2023/05/23 01:15:53;;;;;;;6.53;5.85;;;16.50;99.90;;;;;;5050191;28;20206;-76
2023/05/23 01:18:29;;;;;;;6.68;5.47;;;16.60;99.90;;;;;;5050595;28;20218;-73
2023/05/23 01:21:01;;;;;;;6.72;6.07;;;16.60;99.90;;;;;;5050309;28;20685;-72
2023/05/23 01:24:11;;;;;;;6.13;5.53;;;16.70;99.90;;;;;;5041874;28;20234;-75
2023/05/23 01:26:58;;;;;;;5.82;5.32;;;16.50;99.90;;;;;;5049661;28;20242;-79
2023/05/23 01:29:30;;;;;;;7.60;6.90;;;16.60;99.90;;;;;;5049900;28;20276;-73
2023/05/23 01:31:58;;;;;;;7.35;6.68;;;16.60;99.90;;;;;;5050347;28;20242;-79
2023/05/23 01:34:25;;;;;;;6.45;5.85;;;16.60;99.90;;;;;;5049837;28;20246;-77
2023/05/23 01:36:55;;;;;;;6.63;5.93;;;16.60;99.90;;;;;;5050288;28;20268;-77
2023/05/23 01:39:22;;;;;;;7.85;6.13;;;16.50;99.90;;;;;;5050660;28;20217;-73
2023/05/23 01:41:49;;;;;;;5.68;5.18;;;16.40;99.90;;;;;;5050023;28;20230;-76
2023/05/23 01:44:17;;;;;;;7.43;6.78;;;16.30;99.90;;;;;;5050362;28;20239;-76
2023/05/23 01:46:46;;;;;;;7.18;6.43;;;16.30;99.90;;;;;;5049464;28;20246;-77
2023/05/23 01:49:15;;;;;;;10.70;6.45;;;16.40;99.90;;;;;;5050051;28;20207;-78
2023/05/23 01:51:42;;;;;;;8.00;7.22;;;16.40;99.90;;;;;;5049179;28;20247;-72
2023/05/23 01:54:10;;;;;;;9.40;5.72;;;16.40;99.90;;;;;;5050343;28;20203;-76
2023/05/23 01:56:37;;;;;;;7.22;6.53;;;16.40;99.90;;;;;;5049665;28;20239;-73
2023/05/23 01:59:04;;;;;;;7.20;6.50;;;16.30;99.90;;;;;;5050128;28;20234;-72
2023/05/23 02:01:31;;;;;;;7.50;6.88;;;16.40;99.90;;;;;;5049378;28;20211;-77
2023/05/23 02:03:59;;;;;;;8.02;7.28;;;16.40;99.90;;;;;;5049832;28;20231;-78
2023/05/23 02:06:26;;;;;;;8.15;7.35;;;16.40;99.90;;;;;;5049685;28;20268;-76
2023/05/23 02:08:53;;;;;;;8.45;6.68;;;16.40;99.90;;;;;;5049564;28;20624;-73
2023/05/23 02:11:21;;;;;;;8.25;7.45;;;16.30;99.90;;;;;;5050393;28;20300;-77
2023/05/23 02:13:48;;;;;;;7.38;6.68;;;16.30;99.90;;;;;;5049588;28;20203;-73
2023/05/23 02:16:15;;;;;;;7.78;6.75;;;16.30;99.90;;;;;;5051134;28;20241;-73
2023/05/23 02:18:44;;;;;;;8.95;7.30;;;16.30;99.90;;;;;;5052858;28;20207;-74
2023/05/23 02:21:13;;;;;;;7.50;6.70;;;16.30;99.90;;;;;;5053373;28;20218;-78
2023/05/23 02:23:40;;;;;;;6.53;5.93;;;16.20;99.90;;;;;;5043732;28;20239;-77
2023/05/23 02:26:06;;;;;;;7.20;6.55;;;16.20;99.90;;;;;;5048706;28;20644;-74
2023/05/23 02:28:33;;;;;;;6.75;6.15;;;16.20;99.90;;;;;;5052987;28;20226;-80
2023/05/23 02:31:00;;;;;;;7.45;6.65;;;16.20;99.90;;;;;;5053280;28;20272;-75
2023/05/23 02:33:27;;;;;;;6.82;5.93;;;16.10;99.90;;;;;;5039057;28;20678;-78
2023/05/23 02:35:55;;;;;;;6.88;6.03;;;16.10;99.90;;;;;;5053414;28;20230;-80
2023/05/23 02:38:25;;;;;;;7.38;6.03;;;16.10;99.90;;;;;;5053331;28;20207;-81
2023/05/23 02:40:52;;;;;;;6.93;5.68;;;16.10;99.90;;;;;;5053351;28;20206;-81
2023/05/23 02:43:19;;;;;;;7.20;5.70;;;16.10;99.90;;;;;;5053269;28;20234;-78
2023/05/23 02:45:46;;;;;;;7.55;6.45;;;16.00;99.90;;;;;;5052513;28;20242;-77
2023/05/23 02:48:13;;;;;;;6.43;5.82;;;15.90;99.90;;;;;;5052729;28;20775;-74
2023/05/23 02:50:40;;;;;;;9.50;7.22;;;15.90;99.90;;;;;;5052318;28;20273;-72
2023/05/23 02:53:07;;;;;;;7.50;6.90;;;15.90;99.90;;;;;;5053106;28;20238;-77
2023/05/23 02:55:35;;;;;;;8.23;7.15;;;15.80;99.90;;;;;;5038286;28;20709;-78
2023/05/23 02:58:04;;;;;;;7.65;6.22;;;15.90;99.90;;;;;;5042447;28;20289;-75
2023/05/23 03:00:32;;;;;;;7.22;6.55;;;15.90;99.90;;;;;;5035861;28;20207;-80
2023/05/23 03:02:59;;;;;;;7.57;6.53;;;15.90;99.90;;;;;;5041417;28;20214;-74
2023/05/23 03:05:26;;;;;;;7.72;7.05;;;15.90;99.90;;;;;;5044016;28;20215;-76
2023/05/23 03:07:53;;;;;;;7.63;6.93;;;15.80;99.90;;;;;;5046666;28;20238;-72
2023/05/23 03:10:20;;;;;;;7.40;6.68;;;15.80;99.90;;;;;;5052660;28;20288;-74
2023/05/23 03:12:48;;;;;;;7.72;7.00;;;15.70;99.90;;;;;;5052041;28;20231;-73
2023/05/23 03:15:15;;;;;;;8.40;7.30;;;15.70;99.90;;;;;;5038129;28;20636;-74
2023/05/23 03:17:42;;;;;;;8.68;6.60;;;15.70;99.90;;;;;;5052179;28;20242;-73
2023/05/23 03:20:10;;;;;;;7.78;6.90;;;15.70;99.90;;;;;;5051960;28;20250;-74
2023/05/23 03:22:37;;;;;;;7.63;6.93;;;15.70;99.90;;;;;;5051929;28;20245;-75
2023/05/23 03:25:05;;;;;;;7.28;6.55;;;15.60;99.90;;;;;;5051865;28;20626;-74
2023/05/23 03:27:32;;;;;;;10.00;6.97;;;15.50;99.90;;;;;;5050842;28;20243;-77
2023/05/23 03:30:00;;;;;;;8.32;7.53;;;15.50;99.90;;;;;;5052215;28;20266;-77
2023/05/23 03:32:27;;;;;;;7.05;6.43;;;15.40;99.90;;;;;;5037344;28;20294;-74
2023/05/23 03:34:54;;;;;;;7.57;6.90;;;15.40;99.90;;;;;;5052362;28;20644;-78
2023/05/23 03:37:21;;;;;;;6.45;5.88;;;15.50;99.90;;;;;;5052292;28;20245;-78
2023/05/23 03:39:47;;;;;;;7.85;7.05;;;15.50;99.90;;;;;;5051638;28;20234;-77
2023/05/23 03:42:14;;;;;;;7.32;6.63;;;15.50;99.90;;;;;;5051782;28;20238;-79
2023/05/23 03:44:41;;;;;;;8.40;7.50;;;15.50;99.90;;;;;;5052104;28;20235;-82
2023/05/23 03:47:10;;;;;;;7.43;6.72;;;15.50;99.90;;;;;;5052049;28;20242;-80
2023/05/23 03:49:36;;;;;;;8.48;7.10;;;15.50;99.90;;;;;;5051695;28;20246;-72
2023/05/23 03:52:04;;;;;;;9.68;7.22;;;15.50;99.90;;;;;;5052198;28;20760;-81
2023/05/23 03:54:31;;;;;;;10.63;7.35;;;15.50;99.90;;;;;;5051544;28;20214;-81
2023/05/23 03:56:57;;;;;;;7.22;6.60;;;15.50;99.90;;;;;;5052029;28;20285;-72
2023/05/23 03:59:24;;;;;;;7.30;6.60;;;15.50;99.90;;;;;;5051779;28;20231;-75
2023/05/23 04:01:51;;;;;;;9.98;7.90;;;15.40;99.90;;;;;;5051771;28;20258;-77
2023/05/23 04:04:20;;;;;;;9.32;8.25;;;15.40;99.90;;;;;;5051125;28;20623;-81
2023/05/23 04:06:47;;;;;;;11.25;8.40;;;15.30;99.90;;;;;;5038482;28;20678;-77
2023/05/23 04:09:14;;;;;;;6.30;5.70;;;15.30;99.90;;;;;;5051766;28;20283;-71
2023/05/23 04:11:41;;;;;;;8.05;6.70;;;15.30;99.90;;;;;;5050944;28;20774;-77
2023/05/23 04:14:08;;;;;;;8.30;6.60;;;15.30;99.90;;;;;;5051758;28;20210;-82
2023/05/23 04:16:35;;;;;;;8.05;6.05;;;15.30;99.90;;;;;;5051041;28;20238;-83
2023/05/23 04:19:03;;;;;;;8.88;6.50;;;15.20;99.90;;;;;;5051437;28;20690;-78
2023/05/23 04:21:31;;;;;;;8.57;7.38;;;15.30;99.90;;;;;;5050781;28;20215;-73
2023/05/23 04:23:58;;;;;;;10.00;7.85;;;15.20;99.90;;;;;;5051375;28;20694;-79
2023/05/23 04:26:25;;;;;;;8.30;6.35;;;15.30;99.90;;;;;;5050816;28;20242;-72
2023/05/23 04:28:53;;;;;;;7.55;6.72;;;15.30;99.90;;;;;;5051379;28;20242;-79
2023/05/23 04:31:21;;;;;;;9.68;7.25;;;15.30;99.90;;;;;;5051246;28;20235;-80
2023/05/23 04:33:48;;;;;;;8.90;6.88;;;15.40;99.90;;;;;;5050602;28;20209;-78
2023/05/23 04:36:15;;;;;;;8.48;7.68;;;15.40;99.90;;;;;;5050758;28;20218;-82
2023/05/23 04:38:43;;;;;;;8.05;6.35;;;15.40;99.90;;;;;;5050270;28;20626;-81
2023/05/23 04:41:10;;;;;;;7.97;6.82;;;15.40;99.90;;;;;;5051079;28;20246;-77
2023/05/23 04:43:41;;;;;;;8.73;7.93;;;15.40;99.90;;;;;;5050410;28;20247;-78
2023/05/23 04:46:09;;;;;;;8.18;6.90;;;15.40;99.90;;;;;;5050557;28;20298;-74
2023/05/23 04:48:37;;;;;;;7.85;7.05;;;15.40;99.90;;;;;;5050773;28;20250;-78
2023/05/23 04:51:06;;;;;;;9.32;7.38;;;15.30;99.90;;;;;;5050759;28;20702;-79
2023/05/23 04:53:34;;;;;;;8.10;7.30;;;15.30;99.90;;;;;;5050769;28;20209;-73
2023/05/23 04:56:02;;;;;;;27.13;20.23;;;15.40;99.90;;;;;;5049910;28;20588;-82
2023/05/23 04:58:30;;;;;;;9.38;7.82;;;15.50;99.90;;;;;;5050571;28;20235;-82
2023/05/23 05:00:57;;;;;;;7.78;7.07;;;15.50;99.90;;;;;;5049943;28;20298;-75
2023/05/23 05:03:25;;;;;;;11.48;10.15;;;15.50;99.90;;;;;;5050492;28;20250;-80
2023/05/23 05:05:52;;;;;;;13.77;9.95;;;15.60;99.90;;;;;;5046988;28;20202;-82
2023/05/23 05:08:19;;;;;;;15.02;8.25;;;15.60;99.90;;;;;;5045230;28;20238;-75
2023/05/23 05:10:46;;;;;;;9.30;7.47;;;15.60;99.90;;;;;;5045339;28;20720;-78
2023/05/23 05:13:15;;;;;;;8.35;7.35;;;15.70;99.90;;;;;;5047183;28;20204;-79
2023/05/23 05:15:42;;;;;;;10.32;7.53;;;15.70;99.90;;;;;;5048267;28;20758;-74
2023/05/23 05:18:10;;;;;;;7.72;6.32;;;15.70;99.90;;;;;;5050189;28;20246;-79
2023/05/23 05:20:37;;;;;;;8.63;7.75;;;15.80;99.90;;;;;;5049424;28;20682;-77
2023/05/23 05:23:04;;;;;;;7.85;7.10;;;15.80;99.90;;;;;;5049959;28;20690;-78
2023/05/23 05:25:34;;;;;;;11.57;7.60;;;15.70;99.90;;;;;;5047348;28;20242;-78
2023/05/23 05:28:05;;;;;;;8.65;7.75;;;15.80;99.90;;;;;;5038781;28;20214;-76
2023/05/23 05:30:34;;;;;;;8.98;7.93;;;15.90;99.90;;;;;;5049757;28;20199;-78
2023/05/23 05:33:02;;;;;;;8.00;7.30;;;15.90;99.90;;;;;;5048839;28;20211;-76
2023/05/23 05:35:31;;;;;;;8.30;7.50;;;15.80;99.90;;;;;;5049399;28;20207;-79
2023/05/23 05:37:58;;;;;;;9.23;7.43;;;15.80;99.90;;;;;;5049539;28;20210;-81
2023/05/23 05:40:25;;;;;;;8.93;8.13;;;15.80;99.90;;;;;;5049888;28;20238;-76
2023/05/23 05:42:52;;;;;;;9.43;8.43;;;15.90;99.90;;;;;;5049874;28;20670;-76
2023/05/23 05:45:18;;;;;;;8.73;7.82;;;15.90;99.90;;;;;;5039926;28;20235;-80
2023/05/23 05:47:47;;;;;;;9.43;8.52;;;15.90;99.90;;;;;;5052491;28;20250;-81
2023/05/23 05:50:14;;;;;;;9.38;8.38;;;15.80;99.90;;;;;;5046828;28;20289;-80
2023/05/23 05:52:41;;;;;;;9.13;8.10;;;15.90;99.90;;;;;;5052538;28;20725;-81
2023/05/23 05:55:11;;;;;;;8.88;8.00;;;15.90;99.90;;;;;;5053650;28;20203;-78
2023/05/23 05:57:38;;;;;;;10.27;9.30;;;15.80;99.90;;;;;;5058010;28;20207;-82
2023/05/23 06:00:13;;;;;;;9.10;8.20;;;15.90;99.90;;;;;;5045946;28;20207;-82
2023/05/23 06:02:40;;;;;;;8.40;7.55;;;16.00;99.90;;;;;;5052477;28;20232;-80
2023/05/23 06:05:11;;;;;;;7.85;7.05;;;16.00;99.90;;;;;;5046244;28;20261;-79
2023/05/23 06:07:38;;;;;;;8.48;7.68;;;15.90;99.90;;;;;;5051378;28;20206;-79
2023/05/23 06:10:06;;;;;;;10.23;9.13;;;16.00;99.90;;;;;;5044288;28;20253;-75
2023/05/23 06:12:33;;;;;;;16.30;7.72;;;16.00;99.90;;;;;;5053186;28;20234;-75
2023/05/23 06:15:00;;;;;;;9.80;7.47;;;16.00;99.90;;;;;;5052621;28;20234;-78
2023/05/23 06:17:28;;;;;;;11.30;8.07;;;15.90;99.90;;;;;;5053126;28;20242;-78
2023/05/23 06:19:55;;;;;;;9.25;8.35;;;15.90;99.90;;;;;;5051906;28;20647;-76
2023/05/23 06:22:23;;;;;;;9.02;8.10;;;16.00;99.90;;;;;;5053306;28;20238;-77
2023/05/23 06:24:50;;;;;;;8.07;7.35;;;16.00;99.90;;;;;;5052520;28;20635;-84
2023/05/23 06:27:17;;;;;;;8.30;6.95;;;16.10;99.90;;;;;;5053291;28;20296;-78
2023/05/23 06:29:44;;;;;;;10.50;9.18;;;16.10;99.90;;;;;;5052334;28;20682;-77
2023/05/23 06:32:11;;;;;;;9.15;8.25;;;16.20;99.90;;;;;;5053249;28;20702;-78
2023/05/23 06:34:38;;;;;;;10.45;7.43;;;16.30;99.90;;;;;;5052791;28;20230;-79
2023/05/23 06:37:05;;;;;;;8.75;7.93;;;16.30;99.90;;;;;;5044382;28;20683;-77
2023/05/23 06:39:34;;;;;;;7.80;6.38;;;16.20;99.90;;;;;;5047804;28;20693;-78
2023/05/23 06:42:01;;;;;;;7.47;6.72;;;16.30;99.90;;;;;;5039812;28;20741;-77
2023/05/23 06:44:28;;;;;;;9.15;8.25;;;16.30;99.90;;;;;;5042617;28;20213;-78
2023/05/23 06:46:56;;;;;;;10.73;9.02;;;16.30;99.90;;;;;;5042788;28;20694;-77
2023/05/23 06:49:23;;;;;;;7.80;6.55;;;16.40;99.90;;;;;;5052576;28;20206;-78
2023/05/23 06:51:50;;;;;;;12.70;9.30;;;16.40;99.90;;;;;;5052213;28;20262;-76
2023/05/23 06:54:17;;;;;;;7.88;7.10;;;16.40;99.90;;;;;;5040186;28;20234;-75
2023/05/23 06:56:45;;;;;;;7.20;6.50;;;16.40;99.90;;;;;;5052245;28;20721;-77
2023/05/23 06:59:12;;;;;;;10.15;7.68;;;16.40;99.90;;;;;;5051670;28;20207;-76
2023/05/23 07:01:39;;;;;;;9.13;6.78;;;16.40;99.90;;;;;;5050576;28;20250;-76
2023/05/23 07:04:06;;;;;;;7.82;7.03;;;16.40;99.90;;;;;;5051289;28;20238;-76
2023/05/23 07:06:34;;;;;;;7.35;6.60;;;16.40;99.90;;;;;;5044364;28;20735;-80
2023/05/23 07:09:02;;;;;;;6.82;6.18;;;16.50;99.90;;;;;;5052158;28;20608;-77
2023/05/23 07:11:29;;;;;;;8.02;7.32;;;16.50;99.90;;;;;;5052449;28;20249;-75
2023/05/23 07:13:58;;;;;;;8.70;7.88;;;16.60;99.90;;;;;;5052181;28;20267;-77
2023/05/23 07:16:25;;;;;;;7.65;6.88;;;16.70;99.90;;;;;;5052562;28;20242;-76
2023/05/23 07:18:52;;;;;;;8.57;7.78;;;16.80;99.90;;;;;;5051489;28;20238;-79
2023/05/23 07:21:19;;;;;;;7.40;6.72;;;16.90;99.90;;;;;;5051992;28;20262;-76
2023/05/23 07:23:46;;;;;;;6.95;5.85;;;17.00;99.90;;;;;;5051687;28;20203;-78
2023/05/23 07:26:13;;;;;;;7.32;6.63;;;17.10;99.90;;;;;;5052149;28;20304;-78
2023/05/23 07:28:40;;;;;;;7.13;6.28;;;17.20;99.90;;;;;;5051582;28;20329;-75
2023/05/23 07:31:09;;;;;;;7.65;6.78;;;17.30;99.90;;;;;;5051980;28;20211;-78
2023/05/23 07:33:36;;;;;;;6.65;5.78;;;17.30;99.90;;;;;;5051974;28;20203;-76
2023/05/23 07:36:03;;;;;;;7.60;6.60;;;17.40;99.90;;;;;;5051915;28;20207;-79
2023/05/23 07:38:30;;;;;;;7.88;6.53;;;17.40;99.90;;;;;;5051829;28;20206;-76
2023/05/23 07:40:57;;;;;;;7.53;5.68;;;17.40;99.90;;;;;;5051715;28;20217;-75
2023/05/23 07:43:24;;;;;;;6.63;5.68;;;17.30;99.90;;;;;;5051678;28;20234;-75
2023/05/23 07:45:51;;;;;;;6.32;5.82;;;17.30;99.90;;;;;;5051378;28;20257;-77
2023/05/23 07:48:20;;;;;;;5.93;5.43;;;17.40;99.90;;;;;;5051595;28;20242;-77
2023/05/23 07:50:47;;;;;;;7.05;4.85;;;17.40;99.90;;;;;;5051348;28;20206;-76
2023/05/23 07:53:14;;;;;;;7.28;5.10;;;17.60;99.90;;;;;;5047564;28;20230;-78
2023/05/23 07:55:41;;;;;;;6.93;5.57;;;17.80;99.90;;;;;;5051252;28;20206;-78
2023/05/23 07:58:08;;;;;;;5.78;5.28;;;17.90;99.90;;;;;;5051344;28;20264;-77
2023/05/23 08:00:35;;;;;;;6.57;5.47;;;18.00;99.90;;;;;;5049684;28;20696;-78
2023/05/23 08:03:02;;;;;;;5.60;5.00;;;18.10;99.90;;;;;;5049880;28;20740;-75
2023/05/23 08:05:31;;;;;;;6.55;5.85;;;18.20;99.90;;;;;;5041583;28;20290;-77
2023/05/23 08:07:58;;;;;;;7.05;5.70;;;18.10;99.90;;;;;;5048199;28;20241;-77
2023/05/23 08:10:27;;;;;;;5.93;5.43;;;18.10;99.90;;;;;;5051271;28;20225;-76
2023/05/23 08:12:54;;;;;;;6.05;4.72;;;18.20;99.90;;;;;;5049772;28;20235;-75
2023/05/23 08:15:22;;;;;;;5.97;5.30;;;18.30;99.90;;;;;;5050567;28;20231;-73
2023/05/23 08:17:49;;;;;;;5.13;4.63;;;18.40;99.90;;;;;;5050771;28;20273;-83
2023/05/23 08:20:16;;;;;;;6.47;4.68;;;18.60;99.90;;;;;;5051260;28;20234;-75
2023/05/23 08:22:44;;;;;;;7.90;6.00;;;18.80;99.90;;;;;;5050531;28;20628;-77
2023/05/23 08:25:11;;;;;;;7.20;5.22;;;18.80;99.90;;;;;;5050688;28;20205;-76
2023/05/23 08:27:38;;;;;;;5.85;5.15;;;18.80;99.90;;;;;;5050408;28;20245;-75
2023/05/23 08:30:08;;;;;;;10.15;9.13;;;18.70;99.90;;;;;;5050718;28;20199;-75
2023/05/23 08:32:35;;;;;;;6.18;5.57;;;18.60;99.90;;;;;;5050748;28;20230;-75
2023/05/23 08:35:02;;;;;;;11.68;6.00;;;18.60;99.90;;;;;;5051006;28;20238;-76
2023/05/23 08:37:29;;;;;;;11.57;6.80;;;18.60;99.90;;;;;;5051143;28;20674;-74
2023/05/23 08:39:58;;;;;;;5.88;4.72;;;18.70;99.90;;;;;;5050489;28;20237;-75
2023/05/23 08:42:25;;;;;;;9.85;7.97;;;18.80;99.90;;;;;;5049611;28;20292;-77
2023/05/23 08:44:52;;;;;;;14.43;5.45;;;18.80;99.90;;;;;;5050201;28;20250;-77
2023/05/23 08:47:20;;;;;;;7.95;5.45;;;19.00;99.90;;;;;;5050740;28;20214;-76
2023/05/23 08:49:48;;;;;;;5.82;5.32;;;19.10;99.90;;;;;;5050264;28;20211;-76
2023/05/23 08:52:21;;;;;;;6.03;4.60;;;19.40;99.90;;;;;;5049707;28;20673;-76
2023/05/23 08:54:48;;;;;;;5.30;4.80;;;19.70;99.90;;;;;;5043095;28;20245;-76
2023/05/23 08:57:17;;;;;;;5.55;5.05;;;19.80;99.90;;;;;;5049374;28;20261;-76
2023/05/23 08:59:44;;;;;;;6.55;5.10;;;20.10;99.90;;;;;;5050132;28;20246;-77
2023/05/23 09:02:11;;;;;;;6.25;5.25;;;20.00;99.90;;;;;;5049426;28;20243;-78
2023/05/23 09:04:38;;;;;;;11.00;9.95;;;20.10;99.90;;;;;;5046866;28;20210;-76
2023/05/23 09:07:06;;;;;;;5.95;5.45;;;20.40;99.90;;;;;;5049694;28;20663;-77
2023/05/23 09:09:33;;;;;;;7.10;6.40;;;20.80;99.90;;;;;;5045673;28;20283;-77
2023/05/23 09:12:02;;;;;;;5.90;5.35;;;21.10;99.90;;;;;;5050506;28;20265;-76
2023/05/23 09:14:30;;;;;;;4.78;4.25;;;20.60;99.90;;;;;;5046245;28;20207;-76
2023/05/23 09:17:02;;;;;;;5.03;4.63;;;20.50;99.90;;;;;;5040438;28;20202;-76
2023/05/23 09:19:29;;;;;;;6.05;5.18;;;20.80;99.90;;;;;;5035673;28;20211;-76
2023/05/23 09:21:56;;;;;;;4.93;4.53;;;21.20;99.90;;;;;;5049378;28;20221;-76
2023/05/23 09:24:24;;;;;;;8.48;4.97;;;21.30;99.90;;;;;;5049572;28;20234;-77
2023/05/23 09:26:51;;;;;;;5.50;4.78;;;22.20;99.90;;;;;;5051796;28;20748;-77
2023/05/23 09:29:20;;;;;;;4.55;4.25;;;23.10;99.90;;;;;;5053264;28;20637;-76
2023/05/23 09:31:49;;;;;;;4.63;4.22;;;23.40;99.90;;;;;;5050767;28;20206;-78
2023/05/23 09:34:16;;;;;;;5.82;5.35;;;23.80;99.90;;;;;;5052438;28;20205;-77
2023/05/23 09:36:44;;;;;;;6.13;4.88;;;22.70;99.90;;;;;;5053804;28;20238;-80
2023/05/23 09:39:12;;;;;;;5.78;5.38;;;21.70;99.90;;;;;;5054039;28;20214;-78
2023/05/23 09:41:39;;;;;;;5.82;5.32;;;21.20;99.90;;;;;;5052902;28;20206;-76
2023/05/23 09:44:08;;;;;;;5.40;4.93;;;22.50;99.90;;;;;;5053466;28;20302;-76
2023/05/23 09:46:37;;;;;;;5.18;4.70;;;23.10;99.90;;;;;;5059463;28;20256;-76
2023/05/23 09:49:17;;;;;;;5.32;4.80;;;22.60;99.90;;;;;;5053872;28;20215;-76
2023/05/23 09:51:43;;;;;;;5.70;4.88;;;22.10;99.90;;;;;;5053588;28;20208;-76
2023/05/23 09:54:10;;;;;;;5.57;5.07;;;26.30;99.90;;;;;;5053922;28;20202;-76
2023/05/23 09:56:42;;;;;;;6.00;5.50;;;27.10;99.90;;;;;;5053690;28;20242;-77
2023/05/23 09:59:12;;;;;;;6.05;5.45;;;24.40;99.90;;;;;;5046875;28;20257;-77
2023/05/23 10:01:42;;;;;;;4.30;4.00;;;30.10;99.90;;;;;;5052125;28;20246;-77
2023/05/23 10:04:12;;;;;;;5.07;4.68;;;33.10;99.90;;;;;;5052509;28;20303;-76
2023/05/23 10:06:45;;;;;;;5.50;5.00;;;33.40;99.90;;;;;;5052789;28;20630;-78
2023/05/23 10:09:17;;;;;;;5.20;4.78;;;29.40;99.90;;;;;;5048331;28;20752;-78
2023/05/23 10:12:21;;;;;;;5.28;4.40;;;26.40;99.90;;;;;;5053258;28;20207;-76
2023/05/23 10:14:54;;;;;;;5.72;5.20;;;24.60;99.90;;;;;;5054608;28;20249;-77
2023/05/23 10:17:29;;;;;;;4.32;4.03;;;26.90;99.90;;;;;;5052425;28;20296;-76
2023/05/23 10:20:01;;;;;;;5.10;4.60;;;32.70;99.90;;;;;;5048848;28;20228;-76
2023/05/23 10:22:28;;;;;;;4.53;4.22;;;32.80;99.90;;;;;;5053030;28;20788;-78
2023/05/23 10:24:55;;;;;;;6.03;5.25;;;30.50;99.90;;;;;;5044073;28;20679;-74
2023/05/23 10:27:23;;;;;;;5.45;4.95;;;28.60;99.90;;;;;;5052730;28;20242;-75
2023/05/23 10:29:50;;;;;;;6.05;5.45;;;26.30;99.90;;;;;;5052623;28;20653;-75
2023/05/23 10:32:17;;;;;;;5.28;4.88;;;24.40;99.90;;;;;;5053076;28;20261;-74
2023/05/23 10:34:54;;;;;;;7.03;4.60;;;23.60;99.90;;;;;;5052946;28;20238;-77
2023/05/23 10:37:29;;;;;;;5.45;4.93;;;23.00;99.90;;;;;;5050155;28;20281;-75
2023/05/23 10:40:04;;;;;;;5.20;4.80;;;23.00;99.90;;;;;;5052063;28;20242;-77
2023/05/23 10:42:41;;;;;;;4.25;3.95;;;23.20;99.90;;;;;;5051379;28;20281;-77
2023/05/23 10:45:15;;;;;;;4.80;4.38;;;23.60;99.90;;;;;;5052902;28;20238;-75
2023/05/23 10:47:42;;;;;;;3.88;3.58;;;23.90;99.90;;;;;;5051507;28;20662;-75
2023/05/23 10:50:13;;;;;;;5.05;4.57;;;23.50;99.90;;;;;;5051097;28;20630;-76
2023/05/23 10:52:42;;;;;;;5.18;4.78;;;23.00;99.90;;;;;;5052521;28;20222;-76
2023/05/23 10:55:14;;;;;;;4.18;3.88;;;22.90;99.90;;;;;;5052371;28;20252;-77
2023/05/23 10:57:42;;;;;;;4.75;4.35;;;22.80;99.90;;;;;;5052198;28;20304;-77
2023/05/23 11:00:14;;;;;;;5.90;5.40;;;22.80;99.90;;;;;;5046857;28;20217;-77
2023/05/23 11:02:53;;;;;;;4.82;4.38;;;23.00;99.90;;;;;;5052017;28;20314;-77
2023/05/23 11:05:22;;;;;;;4.68;4.22;;;23.90;99.90;;;;;;5032747;28;20214;-75
2023/05/23 11:08:08;;;;;;;5.43;4.25;;;24.60;99.90;;;;;;5048566;28;20306;-78
2023/05/23 11:10:53;;;;;;;4.18;3.88;;;24.90;99.90;;;;;;5052431;28;20217;-75
2023/05/23 11:13:21;;;;;;;4.15;3.85;;;24.80;99.90;;;;;;5050622;28;20258;-77
2023/05/23 11:15:48;;;;;;;4.43;4.13;;;24.60;99.90;;;;;;5052139;28;20207;-75
2023/05/23 11:18:27;;;;;;;4.38;3.97;;;24.90;99.90;;;;;;5051946;28;20227;-77
2023/05/23 11:20:55;;;;;;;5.72;4.28;;;24.30;99.90;;;;;;5052029;28;20206;-79
2023/05/23 11:23:24;;;;;;;4.70;4.20;;;24.10;99.90;;;;;;5051961;28;20231;-77
2023/05/23 11:25:52;;;;;;;7.93;4.60;;;23.90;99.90;;;;;;5049095;28;20218;-73
2023/05/23 11:28:20;;;;;;;5.53;4.03;;;23.50;99.90;;;;;;5052084;28;20265;-74
2023/05/23 11:30:51;;;;;;;4.82;4.43;;;23.80;99.90;;;;;;5051411;28;20206;-75
2023/05/23 11:33:19;;;;;;;3.78;3.40;;;23.70;99.90;;;;;;5051575;28;20777;-73
2023/05/23 11:35:48;;;;;;;5.20;4.80;;;24.00;99.90;;;;;;5051521;28;20209;-73
2023/05/23 11:38:15;;;;;;;7.45;6.40;;;24.20;99.90;;;;;;5051695;28;20641;-74
2023/05/23 11:40:46;;;;;;;4.78;4.32;;;24.50;99.90;;;;;;5051422;28;20211;-76
2023/05/23 11:43:15;;;;;;;4.22;3.92;;;24.10;99.90;;;;;;5051753;28;20211;-76
2023/05/23 11:45:42;;;;;;;4.97;4.40;;;23.70;99.90;;;;;;5044898;28;20675;-76
2023/05/23 11:48:11;;;;;;;3.78;3.20;;;23.80;99.90;;;;;;5051162;28;20430;-74
2023/05/23 11:50:46;;;;;;;4.35;3.95;;;24.00;99.90;;;;;;5049901;28;20199;-75
2023/05/23 11:53:15;;;;;;;4.57;4.18;;;24.30;99.90;;;;;;5039743;28;20273;-72
2023/05/23 11:55:49;;;;;;;4.57;3.95;;;24.40;99.90;;;;;;5048619;28;20199;-80
2023/05/23 11:58:16;;;;;;;4.07;3.72;;;23.40;99.90;;;;;;5051664;28;20326;-82
2023/05/23 12:00:44;;;;;;;3.88;3.58;;;23.60;99.90;;;;;;5051683;28;20238;-83
2023/05/23 12:03:11;;;;;;;4.82;3.50;;;23.70;99.90;;;;;;5051761;28;20250;-77
2023/05/23 12:05:38;;;;;;;4.13;3.72;;;24.10;99.90;;;;;;5039916;28;20261;-74
2023/05/23 12:08:05;;;;;;;4.85;3.90;;;24.50;99.90;;;;;;5049320;28;20639;-72
2023/05/23 12:10:32;;;;;;;3.78;3.47;;;24.40;99.90;;;;;;5051768;28;20257;-75
2023/05/23 12:13:01;;;;;;;4.03;3.72;;;23.80;99.90;;;;;;5051148;28;20317;-82
2023/05/23 12:15:30;;;;;;;3.55;3.35;;;23.50;99.90;;;;;;5051404;28;20678;-72
2023/05/23 12:17:57;;;;;;;4.05;3.75;;;23.90;99.90;;;;;;5050810;28;20301;-75
2023/05/23 12:20:26;;;;;;;4.72;4.13;;;24.10;99.90;;;;;;5044932;28;20231;-76
2023/05/23 12:22:54;;;;;;;4.25;3.90;;;24.40;99.90;;;;;;5050284;28;20678;-78
2023/05/23 12:25:22;;;;;;;4.32;3.92;;;24.30;99.90;;;;;;5045771;28;20208;-80
2023/05/23 12:27:49;;;;;;;5.22;4.05;;;24.50;99.90;;;;;;5040923;28;20236;-76
2023/05/23 12:30:17;;;;;;;4.43;4.03;;;24.90;99.90;;;;;;5045715;28;20233;-78
2023/05/23 12:32:46;;;;;;;3.97;3.67;;;25.00;99.90;;;;;;5050533;28;20697;-74
2023/05/23 12:35:14;;;;;;;3.63;3.33;;;24.90;99.90;;;;;;5045450;28;20582;-77
2023/05/23 12:37:44;;;;;;;4.60;4.20;;;25.10;99.90;;;;;;5049477;28;20203;-80
2023/05/23 12:40:14;;;;;;;3.58;3.17;;;25.00;99.90;;;;;;5049248;28;20207;-76
2023/05/23 12:42:52;;;;;;;3.90;3.60;;;25.30;99.90;;;;;;5048765;28;20210;-85
2023/05/23 12:45:22;;;;;;;4.15;3.70;;;25.50;99.90;;;;;;5049329;28;20209;-78
2023/05/23 12:47:49;;;;;;;6.18;3.88;;;25.10;99.90;;;;;;5045756;28;20242;-76
2023/05/23 12:50:16;;;;;;;16.38;14.75;;;24.70;99.90;;;;;;5048552;28;20697;-79
2023/05/23 12:52:43;;;;;;;4.47;4.15;;;24.70;99.90;;;;;;5048179;28;20671;-78